Webcam Meteoipassi more information Webcam Meteoipassi


Pisa torre orologio more information Pisa torre orologio


altri nostri siti meteo:

Pomeziameteo 1Sito sul meteo

Pomeziameteo DashboardSito sul meteo

Caput FrigorisSito sul meteo

BarcellonameteoSito sul meteo

MeteoipassiSito sul meteo

ViterbometeoSito sul meteo

MeteotortoretoSito sul meteo

TortoretometeolidoSito sul meteo

MeteoGonzagaSito sul meteo



Nessuna attenzione particolare richiesta.    Non ci sono allerte meteo

Report METAR

   
LIRQ - Firenze
Dati ricevuti: Apr 9 2020 2:50 pm
Sereno  
Sereno  
   Vento: S 11.1 km/h
Vento: S 11.1 km/h
Temperatura: 24°C
P.to Rugiada: -4°C
Umidita: 15%
Barometro: 1020 hPa
Visibilita: oltre 10 km
dettagli cloud: Sereno
LIRQ 091250Z 16006KT 080V210 CAVOK 24/M04 Q1020
LIRP - Lucca
Dati ricevuti: Apr 9 2020 2:45 pm
Sereno  
Sereno  
   Vento: NO 16.7 km/h
Vento: NO 16.7 km/h
Temperatura: 21°C
P.to Rugiada: 0°C
Umidita: 25%
Barometro: 1021 hPa
Visibilita: oltre 10 km
dettagli cloud: Sereno
LIRP 091245Z 31009KT CAVOK 21/00 Q1021 NOSIG
LIRP - Livorno
Dati ricevuti: Apr 9 2020 2:45 pm
Sereno  
Sereno  
   Vento: NO 16.7 km/h
Vento: NO 16.7 km/h
Temperatura: 21°C
P.to Rugiada: 0°C
Umidita: 25%
Barometro: 1021 hPa
Visibilita: oltre 10 km
dettagli cloud: Sereno
LIRP 091245Z 31009KT CAVOK 21/00 Q1021 NOSIG
LIMP - Parma
Dati ricevuti: Apr 9 2020 2:50 pm
Sereno  
Sereno  
   Vento: Variabile 3.7 km/h
Vento: Variabile 3.7 km/h
Temperatura: 23°C
P.to Rugiada: 8°C
Umidita: 38%
Barometro: 1022 hPa
Visibilita: oltre 10 km
dettagli cloud: Sereno
LIMP 091250Z VRB02KT CAVOK 23/08 Q1022
LIRF - Roma
Dati ricevuti: Apr 9 2020 2:50 pm
Sereno  
Sereno  
   Vento: W 14.8 km/h
Vento: W 14.8 km/h
Temperatura: 18°C
P.to Rugiada: 7°C
Umidita: 49%
Barometro: 1021 hPa
Visibilita: oltre 10 km
dettagli cloud: Sereno
LIRF 091250Z 25008KT CAVOK 18/07 Q1021 NOSIG
 

Script sviluppato da  Saratoga-weather.org Adattato per il modello da  Weerstation Leuven

Potete trovare le nostre info meteo anche a:

European Weather Network

Weather Underground

AWEKAS

HAMweather, WeatherForYou, PWS Weather

Strumentazione usata:

Stazione meteo
Oregon Scientific WMR88

Programma gestore dati meteo
WVIEW

Server per i dati meteo
WDS-5

Provider
Anemos WDS-5

Oregon Scientific WMR88

WVIEW

WDS-5

Anemos WDS-5